Time;durP1;ratioP1;P1;durP2;ratioP2;P2;SDS_P1;SDS_P2;PMS_P1;PMS_P2;Temp;Humidity;BMP_temperature;BMP_pressure;BME280_temperature;BME280_humidity;BME280_pressure;Samples;Min_cycle;Max_cycle;Signal;HPM_P1;HPM_P2
2021/11/23 00:01:20;;;;;;;6.80;3.50;;;;;;;3.62;81.40;103064.22;5009086;28;20085;-83
2021/11/23 00:03:48;;;;;;;5.05;3.72;;;;;;;3.67;81.43;103056.94;5005751;28;20049;-82
2021/11/23 00:06:16;;;;;;;8.82;4.50;;;;;;;3.71;81.49;103070.97;5005765;28;20042;-82
2021/11/23 00:08:43;;;;;;;7.95;4.32;;;;;;;3.75;81.33;103066.66;5016351;28;20045;-83
2021/11/23 00:11:10;;;;;;;7.90;3.83;;;;;;;3.75;81.62;103069.41;5024294;28;20061;-82
2021/11/23 00:13:37;;;;;;;12.27;5.22;;;;;;;3.79;81.74;103065.09;5020661;28;20026;-82
2021/11/23 00:16:04;;;;;;;10.77;5.47;;;;;;;3.86;81.63;103065.81;5019036;28;20044;-82
2021/11/23 00:18:31;;;;;;;7.65;4.05;;;;;;;3.94;81.65;103062.69;5024605;28;20131;-82
2021/11/23 00:20:58;;;;;;;7.75;3.83;;;;;;;4.00;81.88;103056.19;5022782;28;20037;-82
2021/11/23 00:23:25;;;;;;;12.20;4.35;;;;;;;4.06;81.91;103044.25;5023974;28;20048;-82
2021/11/23 00:25:52;;;;;;;8.57;4.45;;;;;;;4.11;81.60;103046.25;5022022;28;20069;-82
2021/11/23 00:28:19;;;;;;;10.85;3.53;;;;;;;4.16;81.73;103051.81;5021265;28;20041;-82
2021/11/23 00:30:46;;;;;;;7.68;4.63;;;;;;;4.21;82.10;103054.66;5020282;28;20072;-82
2021/11/23 00:33:14;;;;;;;5.25;3.95;;;;;;;4.27;82.44;103051.78;5020624;28;20472;-82
2021/11/23 00:35:41;;;;;;;11.10;4.18;;;;;;;4.32;81.93;103043.63;5021593;28;20025;-82
2021/11/23 00:38:13;;;;;;;12.52;5.30;;;;;;;4.38;82.16;103046.47;5003686;28;20478;-81
2021/11/23 00:40:40;;;;;;;6.85;4.20;;;;;;;4.41;82.60;103045.97;5019087;28;20087;-82
2021/11/23 00:43:06;;;;;;;9.77;3.70;;;;;;;4.46;82.69;103048.81;5020513;28;20065;-81
2021/11/23 00:45:35;;;;;;;7.15;3.75;;;;;;;4.52;82.52;103053.31;5019175;28;20037;-82
2021/11/23 00:48:03;;;;;;;12.25;4.47;;;;;;;4.56;82.39;103049.81;5021333;28;20068;-82
2021/11/23 00:50:32;;;;;;;7.88;3.70;;;;;;;4.59;82.62;103041.09;5016919;28;20649;-82
2021/11/23 00:52:59;;;;;;;5.63;3.63;;;;;;;4.65;82.52;103042.00;5018605;28;20061;-82
2021/11/23 00:55:28;;;;;;;6.80;3.60;;;;;;;4.66;82.54;103038.19;5019593;28;20551;-82
2021/11/23 00:57:55;;;;;;;6.65;3.30;;;;;;;4.70;82.54;103044.81;5014003;28;20069;-82
2021/11/23 01:00:22;;;;;;;7.25;3.95;;;;;;;4.73;82.30;103041.59;5020579;28;20083;-82
2021/11/23 01:02:49;;;;;;;5.95;3.35;;;;;;;4.75;82.48;103039.41;5021025;28;20041;-82
2021/11/23 01:05:16;;;;;;;8.18;3.90;;;;;;;4.78;82.60;103045.25;5010391;28;20091;-82
2021/11/23 01:07:43;;;;;;;6.97;3.42;;;;;;;4.83;82.73;103052.72;5012853;28;20485;-82
2021/11/23 01:10:12;;;;;;;7.63;3.83;;;;;;;4.86;82.68;103054.97;5020266;28;20033;-81
2021/11/23 01:12:40;;;;;;;6.88;4.03;;;;;;;4.87;82.47;103040.16;5013610;28;20042;-82
2021/11/23 01:15:08;;;;;;;6.88;3.47;;;;;;;4.88;82.50;103052.78;5013349;28;20129;-82
2021/11/23 01:17:35;;;;;;;9.25;4.15;;;;;;;4.90;82.73;103045.97;5013627;28;20065;-82
2021/11/23 01:20:06;;;;;;;8.05;4.00;;;;;;;4.92;82.75;103037.50;5012641;28;20123;-82
2021/11/23 01:22:33;;;;;;;5.68;3.45;;;;;;;4.93;82.82;103048.22;5011091;28;20034;-82
2021/11/23 01:25:00;;;;;;;13.13;7.30;;;;;;;4.97;82.68;103044.97;5036282;28;20144;-82
2021/11/23 01:27:27;;;;;;;6.00;3.80;;;;;;;4.99;82.81;103048.28;5020444;28;20030;-82
2021/11/23 01:29:53;;;;;;;;;;;;;;;5.01;82.82;103051.59;5011154;28;20156;-82
2021/11/23 01:32:21;;;;;;;8.10;3.08;;;;;;;5.04;82.71;103051.09;5014468;28;20079;-82
2021/11/23 01:34:48;;;;;;;4.15;2.70;;;;;;;5.05;83.06;103041.78;5016965;28;20046;-82
2021/11/23 01:37:15;;;;;;;7.82;3.00;;;;;;;5.07;82.60;103045.94;5016444;28;20041;-83
2021/11/23 01:39:42;;;;;;;3.85;2.75;;;;;;;5.09;82.70;103042.94;5027363;28;20046;-82
2021/11/23 01:42:10;;;;;;;8.73;2.78;;;;;;;5.09;82.66;103038.28;5012908;28;20486;-82
2021/11/23 01:44:37;;;;;;;7.63;3.50;;;;;;;5.12;82.72;103037.78;5019373;28;20128;-82
2021/11/23 01:47:04;;;;;;;8.10;3.22;;;;;;;5.13;82.68;103033.97;5016758;28;20156;-82
2021/11/23 01:49:31;;;;;;;7.82;3.20;;;;;;;5.16;82.69;103038.97;5013777;28;20069;-82
2021/11/23 01:51:58;;;;;;;13.20;2.90;;;;;;;5.19;82.89;103030.19;5009965;28;20776;-79
2021/11/23 01:54:25;;;;;;;7.28;2.70;;;;;;;5.22;82.87;103037.09;5021759;28;20053;-79
2021/11/23 01:56:52;;;;;;;3.33;2.75;;;;;;;5.23;82.92;103039.59;5026001;28;20132;-80
2021/11/23 01:59:19;;;;;;;5.20;3.20;;;;;;;5.24;82.68;103035.75;5016505;28;20528;-80
2021/11/23 02:01:46;;;;;;;5.22;2.42;;;;;;;5.26;82.82;103039.09;5012259;28;20066;-80
2021/11/23 02:04:13;;;;;;;5.55;2.67;;;;;;;5.29;82.83;103035.84;5017954;28;20045;-82
2021/11/23 02:06:40;;;;;;;5.10;2.53;;;;;;;5.30;82.69;103026.50;5000229;28;20085;-82
2021/11/23 02:09:07;;;;;;;3.50;2.47;;;;;;;5.32;82.63;103018.81;5025013;28;20077;-82
2021/11/23 02:11:34;;;;;;;8.02;3.15;;;;;;;5.33;82.69;103017.75;5008701;28;20418;-82
2021/11/23 02:14:03;;;;;;;2.85;2.42;;;;;;;5.35;82.87;103026.56;5025817;28;20037;-82
2021/11/23 02:16:31;;;;;;;7.82;3.30;;;;;;;5.35;82.78;103020.22;5019517;28;20037;-82
2021/11/23 02:18:58;;;;;;;6.15;3.92;;;;;;;5.37;82.65;103020.84;5012263;28;20046;-82
2021/11/23 02:21:25;;;;;;;4.63;2.45;;;;;;;5.38;82.95;103019.72;5015527;28;20460;-82
2021/11/23 02:23:52;;;;;;;5.18;2.83;;;;;;;5.39;82.74;103016.75;5019042;28;20042;-81
2021/11/23 02:26:19;;;;;;;4.60;2.80;;;;;;;5.40;82.85;103029.38;5023643;28;20052;-82
2021/11/23 02:28:47;;;;;;;9.18;3.47;;;;;;;5.42;82.78;103021.72;5021460;28;20144;-82
2021/11/23 02:31:14;;;;;;;6.90;3.58;;;;;;;5.44;82.63;103021.47;5020839;28;20046;-82
2021/11/23 02:33:41;;;;;;;6.13;3.85;;;;;;;5.43;82.89;103023.38;5018712;28;20033;-82
2021/11/23 02:36:09;;;;;;;8.90;4.63;;;;;;;5.44;82.87;103008.56;5016900;28;20730;-82
2021/11/23 02:38:38;;;;;;;10.25;3.47;;;;;;;5.46;83.03;103016.53;5033351;28;20499;-82
2021/11/23 02:41:08;;;;;;;7.70;3.53;;;;;;;5.46;82.67;103011.03;5014853;28;20477;-81
2021/11/23 02:43:36;;;;;;;7.80;4.22;;;;;;;5.47;82.76;103012.72;5016516;28;20041;-82
2021/11/23 02:46:03;;;;;;;9.77;3.88;;;;;;;5.49;83.20;103016.88;5022071;28;20124;-82
2021/11/23 02:48:30;;;;;;;5.60;3.97;;;;;;;5.49;82.95;103021.53;5013377;28;20121;-82
2021/11/23 02:51:03;;;;;;;8.38;4.75;;;;;;;5.50;82.78;103017.69;5023229;28;20073;-79
2021/11/23 02:53:30;;;;;;;9.77;4.47;;;;;;;5.50;82.82;103013.03;5014600;28;20046;-80
2021/11/23 02:55:59;;;;;;;10.52;4.78;;;;;;;5.50;82.67;103021.28;5019792;28;20073;-80
2021/11/23 02:58:29;;;;;;;8.07;4.53;;;;;;;5.52;82.51;103013.59;5022056;28;20106;-80
2021/11/23 03:01:02;;;;;;;9.02;4.22;;;;;;;5.51;82.85;103014.69;5015075;28;20111;-79
2021/11/23 03:03:29;;;;;;;8.25;5.18;;;;;;;5.54;82.83;103008.69;5010865;28;20049;-79
2021/11/23 03:05:56;;;;;;;12.00;4.35;;;;;;;5.54;82.63;103005.94;5016238;28;20053;-80
2021/11/23 03:08:24;;;;;;;6.28;4.55;;;;;;;5.56;82.95;102999.38;5000518;28;20422;-80
2021/11/23 03:10:52;;;;;;;12.25;3.72;;;;;;;5.56;83.16;102993.88;5029345;28;20034;-80
2021/11/23 03:13:19;;;;;;;6.32;3.78;;;;;;;5.57;82.72;103001.84;5015354;28;20500;-80
2021/11/23 03:15:46;;;;;;;8.18;3.95;;;;;;;5.57;82.71;102993.59;5019948;28;20065;-80
2021/11/23 03:18:13;;;;;;;7.80;3.90;;;;;;;5.59;82.93;103001.59;5025109;28;20144;-80
2021/11/23 03:20:40;;;;;;;8.52;3.78;;;;;;;5.60;82.77;102995.00;5008924;28;20037;-80
2021/11/23 03:23:07;;;;;;;9.23;3.88;;;;;;;5.60;82.56;102995.00;5020396;28;20080;-79
2021/11/23 03:25:34;;;;;;;7.15;3.38;;;;;;;5.59;82.67;102993.34;5018818;28;20458;-80
2021/11/23 03:28:01;;;;;;;7.45;3.35;;;;;;;5.61;82.85;103004.91;5021234;28;20485;-80
2021/11/23 03:30:30;;;;;;;5.70;2.92;;;;;;;5.62;82.70;103001.06;5019707;28;20045;-80
2021/11/23 03:33:00;;;;;;;6.75;3.83;;;;;;;5.62;82.77;103003.81;5018332;28;20038;-80
2021/11/23 03:35:29;;;;;;;7.13;3.17;;;;;;;5.61;82.77;103003.00;5013856;28;20038;-80
2021/11/23 03:37:56;;;;;;;6.53;3.45;;;;;;;5.63;82.59;102999.97;5020022;28;20049;-80
2021/11/23 03:40:25;;;;;;;8.52;4.53;;;;;;;5.63;82.29;103003.56;5020272;28;20489;-80
2021/11/23 03:42:53;;;;;;;4.43;3.58;;;;;;;5.62;82.71;102998.31;5020831;28;20056;-80
2021/11/23 03:45:20;;;;;;;6.65;3.00;;;;;;;5.63;82.75;102994.50;5023836;28;20490;-79
2021/11/23 03:47:48;;;;;;;6.03;3.33;;;;;;;5.65;82.35;102992.31;5020645;28;20048;-80
2021/11/23 03:50:16;;;;;;;11.10;4.75;;;;;;;5.64;82.81;102990.66;5017927;28;20100;-80
2021/11/23 03:52:45;;;;;;;6.05;2.78;;;;;;;5.66;82.45;102999.47;5016451;28;20042;-80
2021/11/23 03:55:16;;;;;;;3.42;2.60;;;;;;;5.65;82.58;102995.06;5013418;28;20070;-80
2021/11/23 03:57:45;;;;;;;6.18;2.95;;;;;;;5.67;82.62;102995.63;5012839;28;20041;-80
2021/11/23 04:00:14;;;;;;;9.30;3.22;;;;;;;5.67;82.50;102990.13;5012062;28;20064;-80
2021/11/23 04:02:41;;;;;;;5.90;3.30;;;;;;;5.68;82.61;102995.38;5014991;28;20037;-80
2021/11/23 04:05:09;;;;;;;5.47;2.97;;;;;;;5.70;82.55;102995.09;5023187;28;20148;-80
2021/11/23 04:07:39;;;;;;;5.85;2.78;;;;;;;5.69;82.37;102993.47;5019265;28;20042;-79
2021/11/23 04:10:11;;;;;;;4.50;3.10;;;;;;;5.70;82.45;102989.59;5019669;28;20037;-80
2021/11/23 04:12:39;;;;;;;6.40;3.57;;;;;;;5.70;82.44;103004.19;5014297;28;20044;-80
2021/11/23 04:15:07;;;;;;;5.30;3.15;;;;;;;5.72;82.53;103001.19;5022039;28;20381;-79
2021/11/23 04:17:35;;;;;;;8.57;3.83;;;;;;;5.72;82.73;102999.25;5018036;28;20049;-79
2021/11/23 04:20:06;;;;;;;9.32;3.75;;;;;;;5.71;82.46;102985.78;5024888;28;20117;-80
2021/11/23 04:22:33;;;;;;;12.30;4.25;;;;;;;5.74;82.51;102996.28;5012210;28;20072;-80
2021/11/23 04:25:01;;;;;;;8.65;3.90;;;;;;;5.71;82.49;102983.88;5024485;28;20112;-80
2021/11/23 04:27:28;;;;;;;5.68;3.63;;;;;;;5.72;82.42;102998.44;5015010;28;20037;-80
2021/11/23 04:29:55;;;;;;;7.38;4.55;;;;;;;5.74;82.46;102985.28;5009602;28;20498;-80
2021/11/23 04:32:22;;;;;;;8.07;3.97;;;;;;;5.75;82.42;102984.16;5017398;28;20099;-80
2021/11/23 04:34:49;;;;;;;11.60;5.10;;;;;;;5.75;82.46;102992.41;5017724;28;20539;-80
2021/11/23 04:37:16;;;;;;;4.50;3.30;;;;;;;5.76;82.55;102986.69;5019191;28;20045;-80
2021/11/23 04:39:43;;;;;;;6.78;3.63;;;;;;;5.76;82.51;102988.59;5022438;28;20084;-80
2021/11/23 04:42:10;;;;;;;9.00;4.47;;;;;;;5.76;82.72;102977.59;5021674;28;20100;-79
2021/11/23 04:44:38;;;;;;;8.57;3.40;;;;;;;5.78;82.36;102978.16;5014549;28;20045;-79
2021/11/23 04:47:05;;;;;;;8.27;3.70;;;;;;;5.79;82.44;102982.56;5019746;28;20049;-79
2021/11/23 04:49:32;;;;;;;7.63;4.15;;;;;;;5.80;82.44;102989.75;5021717;28;20072;-80
2021/11/23 04:51:58;;;;;;;4.43;3.60;;;;;;;5.80;82.28;102978.75;5013383;28;20042;-79
2021/11/23 04:54:25;;;;;;;5.25;3.45;;;;;;;5.80;82.20;102976.00;5013484;28;20611;-80
2021/11/23 04:56:52;;;;;;;6.38;3.38;;;;;;;5.79;82.47;102982.56;5024291;28;20152;-80
2021/11/23 04:59:19;;;;;;;9.70;3.90;;;;;;;5.77;82.23;102971.81;5018560;28;20087;-80
2021/11/23 05:01:46;;;;;;;8.00;4.03;;;;;;;5.77;82.14;102963.56;5007125;28;20073;-80
2021/11/23 05:04:13;;;;;;;4.45;3.38;;;;;;;5.78;82.29;102967.16;5014766;28;20037;-80
2021/11/23 05:06:40;;;;;;;7.78;3.75;;;;;;;5.80;82.53;102973.25;5023894;28;20069;-79
2021/11/23 05:09:07;;;;;;;6.85;3.50;;;;;;;5.80;82.00;102973.25;5019063;28;20563;-79
2021/11/23 05:11:36;;;;;;;9.02;2.63;;;;;;;5.80;81.94;102967.75;5022202;28;20037;-80
2021/11/23 05:14:03;;;;;;;8.23;3.33;;;;;;;5.81;82.13;102974.91;5020190;28;20112;-80
2021/11/23 05:16:30;;;;;;;4.35;2.63;;;;;;;5.83;82.05;102969.97;5019082;28;20038;-79
2021/11/23 05:18:57;;;;;;;6.38;3.17;;;;;;;5.82;82.12;102960.91;5016556;28;20041;-79
2021/11/23 05:21:24;;;;;;;6.35;2.58;;;;;;;5.83;82.06;102961.72;5021762;28;20033;-80
2021/11/23 05:23:51;;;;;;;10.38;3.33;;;;;;;5.82;82.00;102966.41;5016128;28;20060;-80
2021/11/23 05:26:17;;;;;;;5.68;2.53;;;;;;;5.83;82.02;102967.22;5029045;28;20033;-80
2021/11/23 05:28:44;;;;;;;3.42;2.50;;;;;;;5.83;82.20;102961.72;5034537;28;20073;-80
2021/11/23 05:31:11;;;;;;;7.05;3.00;;;;;;;5.80;81.75;102959.50;5022831;28;20042;-80
2021/11/23 05:33:38;;;;;;;7.55;3.25;;;;;;;5.79;82.16;102966.09;5017373;28;20042;-79
2021/11/23 05:36:05;;;;;;;5.03;2.72;;;;;;;5.80;82.14;102965.81;5013525;28;20049;-80
2021/11/23 05:38:32;;;;;;;7.25;3.28;;;;;;;5.80;82.00;102962.25;5017968;28;20089;-80
2021/11/23 05:40:58;;;;;;;4.35;2.58;;;;;;;5.81;82.24;102967.47;5011000;28;20477;-80
2021/11/23 05:43:27;;;;;;;6.93;2.70;;;;;;;5.82;81.81;102966.41;5015792;28;20045;-80
2021/11/23 05:45:53;;;;;;;4.97;2.90;;;;;;;5.83;81.87;102964.47;5016940;28;20052;-79
2021/11/23 05:48:20;;;;;;;11.02;2.95;;;;;;;5.85;81.84;102970.59;5019227;28;20040;-80
2021/11/23 05:50:47;;;;;;;4.13;2.83;;;;;;;5.84;81.76;102971.63;5018443;28;20067;-80
2021/11/23 05:53:14;;;;;;;4.50;3.47;;;;;;;5.85;81.69;102965.09;5013602;28;20046;-80
2021/11/23 05:55:41;;;;;;;6.05;2.42;;;;;;;5.84;81.69;102969.72;5010377;28;20547;-80
2021/11/23 05:58:09;;;;;;;4.18;1.88;;;;;;;5.85;81.66;102970.59;5006395;28;20042;-79
2021/11/23 06:00:36;;;;;;;4.10;1.90;;;;;;;5.84;81.69;102977.97;5020059;28;20041;-80
2021/11/23 06:03:04;;;;;;;9.30;2.75;;;;;;;5.85;81.68;102973.34;5016193;28;20047;-80
2021/11/23 06:05:30;;;;;;;6.45;2.10;;;;;;;5.86;81.74;102972.22;5017467;28;20072;-80
2021/11/23 06:07:57;;;;;;;5.40;2.75;;;;;;;5.85;81.60;102968.66;5020239;28;20068;-80
2021/11/23 06:10:24;;;;;;;5.32;1.90;;;;;;;5.84;81.66;102972.47;5013503;28;20524;-80
2021/11/23 06:12:51;;;;;;;5.45;1.85;;;;;;;5.84;81.60;102975.22;5013786;28;20433;-80
2021/11/23 06:15:19;;;;;;;6.40;2.10;;;;;;;5.84;81.78;102963.38;5017337;28;20060;-80
2021/11/23 06:17:47;;;;;;;6.65;2.15;;;;;;;5.85;81.53;102960.41;5011896;28;20046;-80
2021/11/23 06:20:14;;;;;;;2.88;1.75;;;;;;;5.87;81.27;102957.41;5019753;28;20054;-80
2021/11/23 06:22:42;;;;;;;7.28;2.13;;;;;;;5.87;81.31;102963.75;5011824;28;20046;-80
2021/11/23 06:25:09;;;;;;;7.88;2.80;;;;;;;5.88;81.21;102959.88;5016811;28;20033;-80
2021/11/23 06:27:37;;;;;;;4.97;1.77;;;;;;;5.88;81.25;102954.38;5019010;28;20041;-80
2021/11/23 06:30:06;;;;;;;3.20;2.35;;;;;;;5.89;81.19;102960.72;5015216;28;20037;-80
2021/11/23 06:32:33;;;;;;;6.20;2.60;;;;;;;5.90;80.91;102962.38;5014498;28;20062;-80
2021/11/23 06:35:01;;;;;;;3.67;2.10;;;;;;;5.89;81.12;102952.47;5015555;28;20124;-80
2021/11/23 06:37:27;;;;;;;7.78;2.20;;;;;;;5.89;81.32;102958.81;5020965;28;20131;-81
2021/11/23 06:39:54;;;;;;;5.68;2.28;;;;;;;5.90;81.05;102954.13;5003064;28;20093;-80
2021/11/23 06:42:21;;;;;;;3.80;2.85;;;;;;;5.91;81.26;102953.88;5013896;28;20156;-80
2021/11/23 06:44:48;;;;;;;5.38;2.75;;;;;;;5.90;81.23;102951.38;5022994;28;20042;-79
2021/11/23 06:47:15;;;;;;;11.13;3.20;;;;;;;5.90;81.02;102954.97;5015348;28;20069;-80
2021/11/23 06:49:42;;;;;;;5.95;2.58;;;;;;;5.90;81.28;102946.72;5019803;28;20065;-80
2021/11/23 06:52:10;;;;;;;8.25;3.00;;;;;;;5.91;81.40;102947.53;5006540;28;20116;-80
2021/11/23 06:54:37;;;;;;;6.05;3.15;;;;;;;5.91;81.20;102942.03;5022215;28;20052;-80
2021/11/23 06:57:04;;;;;;;10.38;5.55;;;;;;;5.91;81.37;102942.03;5019829;28;20167;-80
2021/11/23 06:59:36;;;;;;;7.75;3.38;;;;;;;5.92;81.34;102943.72;5021985;28;20096;-80
2021/11/23 07:02:03;;;;;;;4.80;3.35;;;;;;;5.93;81.22;102950.88;5015404;28;20038;-80
2021/11/23 07:04:31;;;;;;;5.78;3.03;;;;;;;5.92;81.29;102944.53;5015178;28;20124;-80
2021/11/23 07:06:58;;;;;;;5.32;3.60;;;;;;;5.90;81.43;102952.22;5024147;28;20038;-80
2021/11/23 07:09:25;;;;;;;5.55;3.17;;;;;;;5.89;81.53;102953.31;5007998;28;20045;-80
2021/11/23 07:11:52;;;;;;;7.75;3.13;;;;;;;5.90;81.38;102946.72;5011494;28;20049;-80
2021/11/23 07:14:20;;;;;;;6.45;2.88;;;;;;;5.92;81.33;102949.22;5024512;28;20041;-80
2021/11/23 07:16:48;;;;;;;11.98;3.72;;;;;;;5.94;81.30;102947.03;5015642;28;20111;-80
2021/11/23 07:19:15;;;;;;;10.15;3.15;;;;;;;5.93;81.47;102937.94;5021404;28;20041;-80
2021/11/23 07:21:42;;;;;;;6.85;3.50;;;;;;;5.93;81.38;102945.38;5016339;28;20041;-80
2021/11/23 07:24:09;;;;;;;5.40;3.95;;;;;;;5.94;81.20;102930.53;4998821;28;20069;-80
2021/11/23 07:26:38;;;;;;;9.40;3.75;;;;;;;5.92;81.40;102947.28;5022532;28;20044;-80
2021/11/23 07:29:07;;;;;;;5.32;3.67;;;;;;;5.93;81.12;102945.38;5024816;28;20532;-81
2021/11/23 07:31:34;;;;;;;9.20;3.80;;;;;;;5.92;81.20;102954.69;5017155;28;20068;-80
2021/11/23 07:34:02;;;;;;;11.82;3.20;;;;;;;5.91;81.21;102958.53;5014436;28;20036;-81
2021/11/23 07:36:29;;;;;;;4.20;2.55;;;;;;;5.92;81.51;102957.44;5024199;28;20095;-80
2021/11/23 07:38:59;;;;;;;4.75;2.45;;;;;;;5.93;81.19;102956.38;5019078;28;20081;-81
2021/11/23 07:41:27;;;;;;;3.05;2.08;;;;;;;5.95;81.47;102948.69;5006998;28;20135;-80
2021/11/23 07:43:56;;;;;;;5.75;2.70;;;;;;;5.96;81.29;102951.16;5012187;28;20038;-80
2021/11/23 07:46:25;;;;;;;5.70;2.33;;;;;;;5.97;81.42;102949.25;5013033;28;20830;-80
2021/11/23 07:48:53;;;;;;;6.55;3.00;;;;;;;5.98;81.28;102957.22;5023178;28;20041;-81
2021/11/23 07:51:22;;;;;;;7.20;2.67;;;;;;;6.00;81.17;102951.47;5022190;28;20077;-80
2021/11/23 07:53:49;;;;;;;7.50;3.00;;;;;;;5.98;81.30;102959.16;5020125;28;20482;-80
2021/11/23 07:56:16;;;;;;;4.45;2.40;;;;;;;6.00;80.98;102962.47;5037257;28;20104;-80
2021/11/23 07:58:43;;;;;;;6.70;2.60;;;;;;;6.01;80.98;102966.91;5021822;28;20393;-80
2021/11/23 08:01:10;;;;;;;5.65;2.95;;;;;;;6.02;81.37;102963.88;5008123;28;20096;-80
2021/11/23 08:03:37;;;;;;;3.00;2.70;;;;;;;6.03;80.91;102959.22;5018997;28;20049;-80
2021/11/23 08:06:04;;;;;;;10.50;3.03;;;;;;;6.05;81.06;102966.09;5022857;28;20068;-80
2021/11/23 08:08:30;;;;;;;8.20;3.78;;;;;;;6.06;80.95;102972.44;5016260;28;20044;-80
2021/11/23 08:10:59;;;;;;;10.13;3.55;;;;;;;6.08;80.85;102975.75;4999871;28;20150;-80
2021/11/23 08:13:27;;;;;;;6.68;3.22;;;;;;;6.08;81.07;102973.00;5012641;28;20038;-80
2021/11/23 08:15:54;;;;;;;9.07;4.10;;;;;;;6.08;80.94;102976.59;5011958;28;20080;-81
2021/11/23 08:18:21;;;;;;;9.30;4.07;;;;;;;6.09;80.92;102977.41;5015136;28;20034;-81
2021/11/23 08:20:48;;;;;;;6.38;3.80;;;;;;;6.08;80.64;102975.75;5025632;28;20704;-80
2021/11/23 08:23:14;;;;;;;13.02;5.53;;;;;;;6.09;80.68;102978.22;5016247;28;20037;-81
2021/11/23 08:25:42;;;;;;;12.75;5.05;;;;;;;6.09;80.91;102978.22;5015759;28;20041;-81
2021/11/23 08:28:09;;;;;;;11.07;5.97;;;;;;;6.09;81.14;102977.41;5021919;28;20138;-82
2021/11/23 08:30:36;;;;;;;16.20;5.65;;;;;;;6.10;80.70;102987.31;5019552;28;20056;-82
2021/11/23 08:33:03;;;;;;;13.02;6.38;;;;;;;6.09;81.10;102982.91;5020637;28;20128;-82
2021/11/23 08:35:30;;;;;;;11.75;6.00;;;;;;;6.10;81.29;102990.06;5022621;28;20041;-82
2021/11/23 08:37:57;;;;;;;10.15;4.68;;;;;;;6.09;81.02;102988.41;5024687;28;20037;-82
2021/11/23 08:40:24;;;;;;;9.40;5.43;;;;;;;6.09;81.08;102991.97;5021783;28;20045;-82
2021/11/23 08:42:51;;;;;;;9.32;5.75;;;;;;;6.10;80.87;102984.56;5003714;28;20084;-82
2021/11/23 08:45:18;;;;;;;10.65;5.65;;;;;;;6.11;81.15;102981.56;5023695;28;20037;-82
2021/11/23 08:47:47;;;;;;;15.75;6.80;;;;;;;6.11;80.93;102981.56;5006787;28;20363;-82
2021/11/23 08:50:15;;;;;;;9.75;6.47;;;;;;;6.12;80.98;102990.63;5024636;28;20033;-82
2021/11/23 08:52:42;;;;;;;10.07;6.50;;;;;;;6.15;80.96;103001.13;5021542;28;20077;-81
2021/11/23 08:55:10;;;;;;;15.38;5.65;;;;;;;6.16;81.29;102993.69;5017781;28;20524;-82
2021/11/23 08:57:38;;;;;;;12.55;6.20;;;;;;;6.16;81.26;102994.53;5008546;28;20108;-82
2021/11/23 09:00:14;;;;;;;10.68;4.75;;;;;;;6.18;81.08;102992.34;5013804;28;20041;-83
2021/11/23 09:02:43;;;;;;;12.82;6.53;;;;;;;6.20;81.33;103000.31;5018128;28;20041;-82
2021/11/23 09:05:11;;;;;;;9.73;5.50;;;;;;;6.21;81.22;103002.81;5023017;28;20124;-83
2021/11/23 09:07:39;;;;;;;38.85;8.88;;;;;;;6.24;81.01;103005.06;5020953;28;20041;-82
2021/11/23 09:10:09;;;;;;;12.55;5.47;;;;;;;6.27;81.23;102995.47;5018596;28;20140;-83
2021/11/23 09:12:36;;;;;;;11.25;5.07;;;;;;;6.28;81.00;102986.94;5019273;28;20037;-82
2021/11/23 09:15:04;;;;;;;11.90;4.80;;;;;;;6.30;81.15;102995.75;5013855;28;20029;-82
2021/11/23 09:17:30;;;;;;;9.30;6.03;;;;;;;6.33;81.00;103000.72;5006304;28;20050;-84
2021/11/23 09:19:58;;;;;;;9.50;5.15;;;;;;;6.34;81.26;102994.13;5019682;28;20055;-83
2021/11/23 09:22:25;;;;;;;13.70;5.65;;;;;;;6.37;81.14;102992.78;5011503;28;20168;-82
2021/11/23 09:24:54;;;;;;;17.40;6.68;;;;;;;6.40;81.19;102995.03;5001806;28;20362;-82
2021/11/23 09:27:21;;;;;;;9.15;6.57;;;;;;;6.43;81.06;102992.59;5004571;28;20088;-82
2021/11/23 09:29:49;;;;;;;12.25;6.53;;;;;;;6.45;81.30;103000.56;4994177;28;20104;-83
2021/11/23 09:32:16;;;;;;;23.75;7.90;;;;;;;6.46;81.06;102999.47;4989257;28;20061;-80
2021/11/23 09:34:43;;;;;;;17.13;7.38;;;;;;;6.47;81.16;103001.13;5010495;28;20042;-80
2021/11/23 09:37:10;;;;;;;21.13;7.45;;;;;;;6.47;81.05;102996.44;5021036;28;20482;-79
2021/11/23 09:39:37;;;;;;;14.43;6.75;;;;;;;6.50;81.24;102993.19;5022334;28;20089;-79
2021/11/23 09:42:05;;;;;;;11.88;6.28;;;;;;;6.50;81.06;103001.44;5018399;28;20397;-80
2021/11/23 09:44:32;;;;;;;13.50;7.60;;;;;;;6.52;80.94;103004.75;5017438;28;21118;-80
2021/11/23 09:46:59;;;;;;;15.77;7.25;;;;;;;6.54;81.40;103005.31;5017753;28;20107;-79
2021/11/23 09:49:26;;;;;;;20.25;8.63;;;;;;;6.55;81.03;102993.22;5013733;28;20042;-80
2021/11/23 09:51:53;;;;;;;10.35;6.18;;;;;;;6.55;80.98;102993.22;5009998;28;20069;-80
2021/11/23 09:54:20;;;;;;;12.77;6.85;;;;;;;6.58;81.15;103005.63;5003435;28;20204;-79
2021/11/23 09:56:48;;;;;;;12.90;5.95;;;;;;;6.58;80.63;103000.94;4999864;28;20128;-79
2021/11/23 09:59:17;;;;;;;11.73;6.18;;;;;;;6.61;80.78;102994.91;5001463;28;20053;-79
2021/11/23 10:01:50;;;;;;;13.23;6.38;;;;;;;6.63;80.83;102995.47;4995040;28;20038;-81
2021/11/23 10:04:19;;;;;;;10.57;5.90;;;;;;;6.67;80.66;102985.59;5010216;28;20046;-84
2021/11/23 10:07:07;;;;;;;15.15;5.50;;;;;;;6.69;80.84;102994.44;5002086;28;20043;-82
2021/11/23 10:09:40;;;;;;;14.68;6.65;;;;;;;6.73;80.53;102991.97;5019686;28;20100;-82
2021/11/23 10:12:24;;;;;;;10.73;5.97;;;;;;;6.74;80.48;102999.13;5012031;28;20037;-81
2021/11/23 10:15:16;;;;;;;10.65;5.88;;;;;;;6.77;80.61;102997.78;5010512;28;20078;-81
2021/11/23 10:17:46;;;;;;;11.68;7.10;;;;;;;6.79;80.58;102988.16;5013599;28;20050;-81
2021/11/23 10:20:36;;;;;;;14.38;6.20;;;;;;;6.80;80.51;102989.00;5010764;28;20034;-81
2021/11/23 10:23:08;;;;;;;14.32;6.80;;;;;;;6.83;80.42;102982.97;5011743;28;20073;-81
2021/11/23 10:25:35;;;;;;;10.38;6.47;;;;;;;6.84;80.28;102981.84;5005057;28;20128;-81
2021/11/23 10:28:03;;;;;;;11.52;6.50;;;;;;;6.87;80.29;102986.81;5016205;28;20056;-81
2021/11/23 10:30:30;;;;;;;11.35;7.57;;;;;;;6.89;80.26;102984.63;5009102;28;20121;-81
2021/11/23 10:32:57;;;;;;;11.35;6.57;;;;;;;6.91;80.32;102979.72;5008193;28;20049;-82
2021/11/23 10:35:26;;;;;;;15.05;6.90;;;;;;;6.92;80.28;102971.16;5016983;28;20064;-81
2021/11/23 10:37:54;;;;;;;11.32;6.25;;;;;;;6.97;80.35;102973.09;5014911;28;20048;-81
2021/11/23 10:40:28;;;;;;;14.88;7.47;;;;;;;6.98;80.08;102975.63;5016572;28;20494;-81
2021/11/23 10:43:00;;;;;;;9.32;6.20;;;;;;;7.01;79.96;102972.34;4977653;28;20127;-81
2021/11/23 10:45:40;;;;;;;18.55;7.45;;;;;;;7.04;79.92;102973.72;4970691;28;20131;-82
2021/11/23 10:48:09;;;;;;;10.95;7.03;;;;;;;7.07;79.83;102970.44;4960845;28;20058;-81
2021/11/23 10:50:38;;;;;;;11.48;6.82;;;;;;;7.10;79.89;102975.38;5001207;28;20165;-81
2021/11/23 10:53:09;;;;;;;11.70;6.53;;;;;;;7.12;79.78;102971.25;5003022;28;20081;-82
2021/11/23 10:55:40;;;;;;;19.20;7.43;;;;;;;7.16;79.78;102971.56;5010906;28;20049;-81
2021/11/23 10:58:09;;;;;;;12.23;7.63;;;;;;;7.16;79.64;102963.31;5019127;28;20061;-81
2021/11/23 11:00:42;;;;;;;12.98;8.00;;;;;;;7.18;79.54;102959.19;5006126;28;20046;-81
2021/11/23 11:03:12;;;;;;;15.80;6.57;;;;;;;7.20;79.60;102967.19;5017224;28;20371;-81
2021/11/23 11:05:40;;;;;;;12.93;7.93;;;;;;;7.21;79.42;102963.31;5016438;28;20034;-82
2021/11/23 11:08:08;;;;;;;15.27;7.85;;;;;;;7.22;79.35;102963.06;5005213;28;20055;-81
2021/11/23 11:10:37;;;;;;;14.23;7.13;;;;;;;7.23;79.12;102956.44;5015431;28;20033;-82
2021/11/23 11:13:08;;;;;;;12.23;7.63;;;;;;;7.25;78.99;102945.16;5024381;28;20042;-80
2021/11/23 11:15:36;;;;;;;12.88;7.55;;;;;;;7.27;79.00;102941.03;5012786;28;20082;-81
2021/11/23 11:18:09;;;;;;;15.82;7.03;;;;;;;7.30;78.98;102945.19;5018799;28;20627;-81
2021/11/23 11:20:50;;;;;;;12.20;7.00;;;;;;;7.32;78.93;102951.25;5009452;28;20045;-77
2021/11/23 11:23:23;;;;;;;13.15;8.50;;;;;;;7.34;79.00;102943.53;5020059;28;20041;-78
2021/11/23 11:26:08;;;;;;;18.17;8.00;;;;;;;7.38;78.87;102944.66;5014639;28;20046;-78
2021/11/23 11:28:36;;;;;;;17.08;8.93;;;;;;;7.43;78.65;102944.69;5015995;28;20555;-78
2021/11/23 11:31:07;;;;;;;15.10;6.40;;;;;;;7.41;78.60;102935.88;5017847;28;20121;-78
2021/11/23 11:33:35;;;;;;;16.65;8.00;;;;;;;7.44;78.67;102938.06;5018682;28;20096;-78
2021/11/23 11:36:02;;;;;;;10.68;7.18;;;;;;;7.46;78.53;102938.63;5016204;28;20151;-79